Harbor Beach, MI (48441)

4:07 AM EDT on September 03, 2015 (GMT -0400)
Harbor Beach | | Change Station
CLOSE
Current Station
Personal Weather Station
Location: Harbor Beach, MI
Elevation: 597 ft
Nearby Weather Stations

Elev 597 ft 43.83 °N, 82.64 °W | Updated 37 seconds ago

Partly Cloudy
Partly Cloudy
67.5 °F
Feels Like 67.5 °F
N
1.3
Wind Variable Wind from WNW
Gusts 2.5 mph

Today
High -- | Low -- °F
--% Chance of Precip.
Yesterday
High -- | Low -- °F
Precip. -- in
6:56 AM 8:03 PM
Waning Gibbous, 72% visible
Pressure 29.97 in
Visibility 1.5 miles
Clouds
Dew Point 67 °F
Humidity 99%
Rainfall 0.00 in
Snow Depth Not available.
UV 0.0 out of 12
Pollen 10.60 out of 12
Air Quality Not available.
Flu Activity Not available.
METAR KBAX 030752Z AUTO 00000KT 1 1/2SM BR VV007 17/17 A2997 RMK AO2 T01700169
Pressure 29.97 in
Visibility 1.5 miles
Clouds
Dew Point 67 °F
Humidity 99%
Rainfall 0.00 in
Snow Depth Not available.
UV 0.0 out of 12
Pollen 10.60 out of 12
Air Quality Not available.
Flu Activity Not available.
METAR KBAX 030752Z AUTO 00000KT 1 1/2SM BR VV007 17/17 A2997 RMK AO2 T01700169

10-Day Weather Forecast

×

Almanac

Astronomy

Sep. 03, 2015 Rise Set
Actual Time
Civil Twilight
Nautical Twilight
Astronomical Twilight
Moon
Length of Visible Light
Length of Day
Tomorrow will be .
, % of the Moon is Illuminated

Today's Extremes

State Highs State Lows

Community

WunderPhotos

Upload Photos

1,851,919 photos uploaded!

WunderBlogs® & News

Nearby

Air Quality

  Air Quality AQ Index Pollutant
Not available.

Snow Depth

Station Depth Elevation

Earthquake Activity

City Distance Mag. Time & Date
Minimum magnitude displayed is 2.5.

Coastal Water Temperatures

Place Temperature

Stations

Nearby Weather Stations

Station Location Temp. Windchill Dew Point Humidity Wind Precip. Elev Updated Type